Great Sand Dunes National Mo, Colorado
Current Conditions -  °F | °C
As of 8:52 PM on Wednesday 26 Nov 2014 (Local Time) from KALS Reporting Station
Clear Clear  
Wind Chill: 17°   Ceiling: Unl
Heat Index: 25°   Visibility: 10mi
Dew Point: 17°   Wind: 7mph
Humidity: 72%   Direction: 260°W
Pressure: 30.42"   Gusts: NA
Location:  37.469°N, 105.836°W
Report Text: KALS 270352Z AUTO 26006KT 10SM CLR M04/M08 A3042 RMK AO2 SLP324 T10391083
Loading
Personal Weather Stations






























Interactive Weather Map New forecast layout! Learn more

10-Day Weather Forecast

Advertisements
Track Severe Weather on mobile